Terminal Aerodrome Forecast
Issued by NWS

Home | Current Version | Previous Version | Text Only | Print | Product List | Glossary On
Versions: 1 2 3 4 5 6 7 8 9 10 11 12 13 14 15
511
FTUS42 KTAE 312320
TAFECP
TAF
KECP 312320Z 0100/0124 17004KT P6SM SCT030
     FM010700 00000KT 3SM BR SCT003
     FM010900 00000KT 1SM BR BKN003
     FM011300 24004KT P6SM FEW025
     FM011900 21008KT P6SM SCT040 SCT200=

USA.gov is the U.S. government's official web portal to all federal, state and local government web resources and services.